createdAt,value
2022-08-03T04:32:55.104Z,18.01
2022-08-03T04:33:56.029Z,17.99
2022-08-03T04:34:55.996Z,17.99
2022-08-03T04:36:01.801Z,18.02
2022-08-03T04:36:56.046Z,18.02
2022-08-03T04:37:55.970Z,18.04
2022-08-03T04:38:55.944Z,18.07
2022-08-03T04:39:57.630Z,18.09
2022-08-03T04:40:55.905Z,18.10
2022-08-03T04:42:04.275Z,18.11
2022-08-03T04:42:55.890Z,18.13
2022-08-03T04:43:55.889Z,18.13
2022-08-03T04:45:00.868Z,18.13
2022-08-03T04:45:55.900Z,18.14
2022-08-03T04:46:55.857Z,18.13
2022-08-03T04:47:55.825Z,18.13
2022-08-03T04:48:55.905Z,18.13
2022-08-03T04:49:55.814Z,18.14
2022-08-03T04:50:55.802Z,18.16
2022-08-03T04:51:55.813Z,18.16
2022-08-03T04:52:55.790Z,18.16
2022-08-03T04:53:55.784Z,18.19
2022-08-03T04:54:55.770Z,18.19
2022-08-03T04:55:55.810Z,18.17
2022-08-03T04:56:55.728Z,18.19
2022-08-03T04:57:55.730Z,18.19
2022-08-03T04:58:55.742Z,18.20
2022-08-03T05:00:01.959Z,18.21
2022-08-03T05:00:55.709Z,18.26
2022-08-03T05:01:55.725Z,18.28
2022-08-03T05:02:55.716Z,18.29
2022-08-03T05:03:55.691Z,18.31
2022-08-03T05:04:55.655Z,18.31
2022-08-03T05:06:01.473Z,18.35
2022-08-03T05:06:55.944Z,18.35
2022-08-03T05:07:55.615Z,18.36
2022-08-03T05:08:55.604Z,18.36
2022-08-03T05:10:03.016Z,18.38
2022-08-03T05:10:55.590Z,18.38
2022-08-03T05:11:55.579Z,18.39
2022-08-03T05:12:55.567Z,18.42
2022-08-03T05:13:55.587Z,18.42
2022-08-03T05:14:55.569Z,18.44
2022-08-03T05:15:55.526Z,18.46
2022-08-03T05:16:55.521Z,18.49
2022-08-03T05:17:55.503Z,18.51
2022-08-03T05:18:55.487Z,18.54
2022-08-03T05:19:55.502Z,18.54
2022-08-03T05:20:55.463Z,18.56
2022-08-03T05:21:55.489Z,18.56
2022-08-03T05:23:02.095Z,18.56
2022-08-03T05:23:55.443Z,18.60
2022-08-03T05:24:55.443Z,18.62
2022-08-03T05:25:55.418Z,18.65
2022-08-03T05:26:55.399Z,18.69
2022-08-03T05:27:55.396Z,18.71
2022-08-03T05:28:55.394Z,18.74
2022-08-03T05:29:55.376Z,18.76
2022-08-03T05:30:55.353Z,18.82
2022-08-03T05:31:55.355Z,18.83
2022-08-03T05:32:55.358Z,18.87
2022-08-03T05:33:55.380Z,18.89
2022-08-03T05:34:55.324Z,18.90
2022-08-03T05:36:01.622Z,18.94
2022-08-03T05:36:55.288Z,18.99
2022-08-03T05:37:55.279Z,19.02
2022-08-03T05:38:58.471Z,19.05
2022-08-03T05:39:55.252Z,19.06
2022-08-03T05:40:57.664Z,19.10
2022-08-03T05:41:55.239Z,19.10
2022-08-03T05:42:55.268Z,19.13
2022-08-03T05:43:55.213Z,19.15
2022-08-03T05:44:56.561Z,19.17
2022-08-03T05:46:12.178Z,19.20
2022-08-03T05:46:55.191Z,19.23
2022-08-03T05:47:55.177Z,19.25
2022-08-03T05:48:55.201Z,19.28
2022-08-03T05:49:55.153Z,19.31
2022-08-03T05:50:55.154Z,19.35
2022-08-03T05:52:00.071Z,19.39
2022-08-03T05:52:55.134Z,19.42
2022-08-03T05:53:55.120Z,19.46
2022-08-03T05:54:56.389Z,19.52
2022-08-03T05:55:59.225Z,19.55
2022-08-03T05:56:55.080Z,19.57
2022-08-03T05:57:55.272Z,19.61
2022-08-03T05:58:55.999Z,19.65
2022-08-03T05:59:58.208Z,19.68
2022-08-03T06:00:55.010Z,19.72
2022-08-03T06:01:55.043Z,19.78
2022-08-03T06:02:55.662Z,19.82
2022-08-03T06:03:54.993Z,19.87
2022-08-03T06:04:55.037Z,19.92
2022-08-03T06:05:59.982Z,19.98
2022-08-03T06:06:54.955Z,20.02
2022-08-03T06:07:54.956Z,20.05
2022-08-03T06:08:54.952Z,20.08
2022-08-03T06:10:34.109Z,20.15
2022-08-03T06:10:54.914Z,20.20
2022-08-03T06:11:54.882Z,20.27
2022-08-03T06:12:54.876Z,20.31
2022-08-03T06:13:54.866Z,20.37
2022-08-03T06:14:54.891Z,20.42
2022-08-03T06:15:54.846Z,20.48
2022-08-03T06:16:54.852Z,20.54
2022-08-03T06:17:58.678Z,20.60
2022-08-03T06:18:54.828Z,20.64
2022-08-03T06:19:54.790Z,20.68
2022-08-03T06:20:55.022Z,20.72
2022-08-03T06:21:54.775Z,20.78
2022-08-03T06:23:00.144Z,20.81
2022-08-03T06:23:55.702Z,20.85
2022-08-03T06:24:54.790Z,20.87
2022-08-03T06:25:54.779Z,20.90
2022-08-03T06:26:54.721Z,20.91
2022-08-03T06:27:54.718Z,20.96
2022-08-03T06:28:55.134Z,21.00
2022-08-03T06:29:54.692Z,21.03
2022-08-03T06:30:54.683Z,21.09
2022-08-03T06:31:54.666Z,21.13
2022-08-03T06:32:54.657Z,21.16
2022-08-03T06:34:32.916Z,21.21
2022-08-03T06:34:54.727Z,21.24
2022-08-03T06:35:54.663Z,21.26
2022-08-03T06:36:58.590Z,21.30
2022-08-03T06:37:54.602Z,21.33
2022-08-03T06:38:54.612Z,21.34
2022-08-03T06:39:54.646Z,21.37
2022-08-03T06:40:54.597Z,21.42
2022-08-03T06:41:54.555Z,21.46
2022-08-03T06:42:54.552Z,21.49
2022-08-03T06:44:03.363Z,21.52
2022-08-03T06:44:54.527Z,21.58
2022-08-03T06:45:54.575Z,21.61
2022-08-03T06:46:54.486Z,21.67
2022-08-03T06:47:54.476Z,21.70
2022-08-03T06:48:54.522Z,21.75
2022-08-03T06:50:16.673Z,21.82
2022-08-03T06:50:54.460Z,21.85
2022-08-03T06:52:37.461Z,21.90
2022-08-03T06:52:54.472Z,21.93
2022-08-03T06:53:54.426Z,21.94
2022-08-03T06:54:54.424Z,21.99
2022-08-03T06:55:55.335Z,22.02
2022-08-03T06:56:54.383Z,22.05
2022-08-03T06:57:54.375Z,22.09
2022-08-03T06:58:54.374Z,22.14
2022-08-03T07:00:09.354Z,22.19
2022-08-03T07:00:54.367Z,22.24
2022-08-03T07:01:54.344Z,22.35
2022-08-03T07:02:58.127Z,22.42
2022-08-03T07:03:54.351Z,22.49
2022-08-03T07:04:54.294Z,22.52
2022-08-03T07:05:54.275Z,22.57
2022-08-03T07:06:54.376Z,22.60
2022-08-03T07:07:54.282Z,22.64
2022-08-03T07:08:59.006Z,22.69
2022-08-03T07:09:57.697Z,22.75
2022-08-03T07:10:54.251Z,22.78
2022-08-03T07:11:54.221Z,22.81
2022-08-03T07:12:56.594Z,22.84
2022-08-03T07:13:54.209Z,22.85
2022-08-03T07:14:59.586Z,22.89
2022-08-03T07:15:56.112Z,22.91
2022-08-03T07:16:54.177Z,22.93
2022-08-03T07:17:54.162Z,22.94
2022-08-03T07:18:54.151Z,22.99
2022-08-03T07:19:54.131Z,23.01
2022-08-03T07:20:54.142Z,23.06
2022-08-03T07:21:54.365Z,23.11
2022-08-03T07:22:54.180Z,23.18
2022-08-03T07:23:54.084Z,23.25
2022-08-03T07:24:54.074Z,23.32
2022-08-03T07:25:54.091Z,23.34
2022-08-03T07:26:54.056Z,23.38
2022-08-03T07:27:54.074Z,23.41
2022-08-03T07:28:54.044Z,23.45
2022-08-03T07:29:54.072Z,23.50
2022-08-03T07:30:54.015Z,23.54
2022-08-03T07:31:54.004Z,23.57
2022-08-03T07:32:54.221Z,23.63
2022-08-03T07:33:53.979Z,23.69
2022-08-03T07:34:58.508Z,23.74
2022-08-03T07:35:53.946Z,23.79
2022-08-03T07:36:53.960Z,23.84
2022-08-03T07:37:54.492Z,23.90
2022-08-03T07:38:53.933Z,23.96
2022-08-03T07:39:53.936Z,24.05
2022-08-03T07:40:53.910Z,24.11
2022-08-03T07:41:53.913Z,24.15
2022-08-03T07:42:53.872Z,24.18
2022-08-03T07:43:53.884Z,24.21
2022-08-03T07:44:53.847Z,24.23
2022-08-03T07:45:53.863Z,24.29
2022-08-03T07:46:53.832Z,24.34
2022-08-03T07:47:54.355Z,24.39
2022-08-03T07:48:53.843Z,24.44
2022-08-03T07:49:53.799Z,24.48
2022-08-03T07:50:53.796Z,24.51
2022-08-03T07:51:53.771Z,24.55
2022-08-03T07:52:53.808Z,24.63
2022-08-03T07:53:53.750Z,24.71
2022-08-03T07:54:53.762Z,24.86
2022-08-03T07:55:53.742Z,24.94
2022-08-03T07:56:53.723Z,24.99
2022-08-03T07:57:53.713Z,25.04
2022-08-03T07:58:53.721Z,25.04
2022-08-03T08:00:01.450Z,25.08
2022-08-03T08:02:04.423Z,25.16
2022-08-03T08:03:05.354Z,25.26
2022-08-03T08:04:05.334Z,25.36
2022-08-03T08:05:05.996Z,25.39
2022-08-03T08:06:05.299Z,25.46
2022-08-03T08:07:05.290Z,25.51
2022-08-03T08:08:05.374Z,25.57
2022-08-03T08:09:05.268Z,25.64
2022-08-03T08:10:05.254Z,25.71
2022-08-03T08:11:05.256Z,25.81
2022-08-03T08:12:05.257Z,25.82
2022-08-03T08:13:05.219Z,25.83
2022-08-03T08:14:05.218Z,25.86
2022-08-03T08:15:05.224Z,25.91
2022-08-03T08:16:05.200Z,26.00
2022-08-03T08:17:07.346Z,26.08
2022-08-03T08:18:05.190Z,26.16
2022-08-03T08:19:05.150Z,26.23
2022-08-03T08:20:05.172Z,26.31
2022-08-03T08:21:05.126Z,26.35
2022-08-03T08:22:05.136Z,26.41
2022-08-03T08:23:10.274Z,26.47
2022-08-03T08:24:09.447Z,26.59
2022-08-03T08:25:05.094Z,26.68
2022-08-03T08:26:05.080Z,26.83
2022-08-03T08:27:05.066Z,26.98
2022-08-03T08:28:29.233Z,27.12
2022-08-03T08:29:05.050Z,27.21
2022-08-03T08:30:11.447Z,27.25
2022-08-03T08:31:05.030Z,27.31
2022-08-03T08:32:05.041Z,27.38
2022-08-03T08:33:04.986Z,27.45
2022-08-03T08:34:05.219Z,27.49
2022-08-03T08:35:04.991Z,27.58
2022-08-03T08:36:04.960Z,27.62
2022-08-03T08:37:04.940Z,27.65
2022-08-03T08:38:05.931Z,27.63
2022-08-03T08:39:05.035Z,27.63
2022-08-03T08:40:04.962Z,27.66
2022-08-03T08:41:04.896Z,27.69
2022-08-03T08:42:04.899Z,27.80
2022-08-03T08:43:04.892Z,27.90
2022-08-03T08:44:04.875Z,28.02
2022-08-03T08:45:04.876Z,28.08
2022-08-03T08:46:04.882Z,28.23
2022-08-03T08:47:04.840Z,28.32
2022-08-03T08:48:08.215Z,28.40
2022-08-03T08:49:05.095Z,28.48
2022-08-03T08:50:10.247Z,28.48
2022-08-03T08:51:04.804Z,28.40
2022-08-03T08:52:04.804Z,28.43
2022-08-03T08:53:04.810Z,28.51
2022-08-03T08:54:04.786Z,28.67
2022-08-03T08:55:04.788Z,28.79
2022-08-03T08:56:04.759Z,28.92
2022-08-03T08:57:16.245Z,29.03
2022-08-03T08:58:04.720Z,29.18
2022-08-03T08:59:04.708Z,29.35
2022-08-03T09:00:04.755Z,29.54
2022-08-03T09:01:04.800Z,29.66
2022-08-03T09:02:04.727Z,29.66
2022-08-03T09:03:04.665Z,29.66
2022-08-03T09:04:04.665Z,29.64
2022-08-03T09:05:07.530Z,29.66
2022-08-03T09:06:04.647Z,29.70
2022-08-03T09:07:19.662Z,29.78
2022-08-03T09:08:04.610Z,29.94
2022-08-03T09:09:04.613Z,30.16
2022-08-03T09:10:11.419Z,30.44
2022-08-03T09:12:40.567Z,30.96
2022-08-03T09:13:16.241Z,31.19
2022-08-03T09:14:37.103Z,31.37
2022-08-03T09:15:17.376Z,31.53
2022-08-03T09:16:16.188Z,31.68
2022-08-03T09:17:17.567Z,31.72
2022-08-03T09:18:16.166Z,31.54
2022-08-03T09:19:16.179Z,31.32
2022-08-03T09:20:16.177Z,31.13
2022-08-03T09:21:30.754Z,31.16
2022-08-03T09:22:16.127Z,31.31
2022-08-03T09:23:51.890Z,31.68
2022-08-03T09:24:31.192Z,32.24
2022-08-03T09:25:24.354Z,32.87
2022-08-03T09:26:16.099Z,33.63
2022-08-03T09:27:16.267Z,34.40
2022-08-03T09:28:56.407Z,35.17
2022-08-03T09:29:16.058Z,35.85
2022-08-03T09:30:33.534Z,36.37
2022-08-03T09:31:16.056Z,36.44
2022-08-03T09:32:16.233Z,36.72
2022-08-03T09:33:16.029Z,37.09
2022-08-03T09:34:16.077Z,37.06
2022-08-03T09:35:16.084Z,37.16
2022-08-03T09:36:15.976Z,37.20
2022-08-03T09:37:16.318Z,37.39
2022-08-03T09:38:15.965Z,37.58
2022-08-03T09:39:15.977Z,37.46
2022-08-03T09:40:15.993Z,37.09
2022-08-03T09:41:15.939Z,36.99
2022-08-03T09:42:15.913Z,37.01
2022-08-03T09:43:15.961Z,36.83
2022-08-03T09:44:24.128Z,37.12
2022-08-03T09:45:15.890Z,37.08
2022-08-03T09:46:15.884Z,36.71
2022-08-03T09:47:16.212Z,36.06
2022-08-03T09:48:15.858Z,36.34
2022-08-03T09:49:15.874Z,36.91
2022-08-03T09:50:15.841Z,37.66
2022-08-03T09:51:33.041Z,38.41
2022-08-03T09:52:49.304Z,39.19
2022-08-03T09:53:15.832Z,39.96
2022-08-03T09:54:20.572Z,40.75
2022-08-03T09:56:30.971Z,41.51
2022-08-03T09:56:41.067Z,42.05
2022-08-03T09:57:16.096Z,42.05
2022-08-03T09:58:15.771Z,42.23
2022-08-03T09:59:15.764Z,42.39
2022-08-03T10:00:15.763Z,42.49
2022-08-03T10:01:23.991Z,42.49
2022-08-03T10:02:15.741Z,42.73
2022-08-03T10:03:15.726Z,43.08
2022-08-03T10:04:15.722Z,43.53
2022-08-03T10:05:19.431Z,43.93
2022-08-03T10:06:15.716Z,44.08
2022-08-03T10:07:15.745Z,43.94
2022-08-03T10:08:15.697Z,43.10
2022-08-03T10:09:15.688Z,43.08
2022-08-03T10:10:30.318Z,43.17
2022-08-03T10:11:15.756Z,43.05
2022-08-03T10:12:15.648Z,42.84
2022-08-03T10:13:15.672Z,42.84
2022-08-03T10:14:15.642Z,42.52
2022-08-03T10:16:21.275Z,42.38
2022-08-03T10:16:29.663Z,42.64
2022-08-03T10:17:15.797Z,43.08
2022-08-03T10:18:15.621Z,43.37
2022-08-03T10:19:15.717Z,43.56
2022-08-03T10:20:15.598Z,43.87
2022-08-03T10:21:22.121Z,43.74
2022-08-03T10:22:15.573Z,43.79
2022-08-03T10:23:15.564Z,43.96
2022-08-03T10:24:15.546Z,44.27
2022-08-03T10:25:15.540Z,44.51
2022-08-03T10:26:15.541Z,44.82
2022-08-03T10:27:15.809Z,45.15
2022-08-03T10:28:15.525Z,45.35
2022-08-03T10:29:15.531Z,45.15
2022-08-03T10:30:15.500Z,44.64
2022-08-03T10:31:15.493Z,44.42
2022-08-03T10:32:15.500Z,44.43
2022-08-03T10:33:52.066Z,44.10
2022-08-03T10:34:15.513Z,44.05
2022-08-03T10:35:20.326Z,43.34
2022-08-03T10:36:15.452Z,43.40
2022-08-03T10:37:15.464Z,43.55
2022-08-03T10:38:15.437Z,43.94
2022-08-03T10:39:16.349Z,44.35
2022-08-03T10:40:33.295Z,44.82
2022-08-03T10:41:15.428Z,44.86
2022-08-03T10:42:15.462Z,44.89
2022-08-03T10:43:15.408Z,45.10
2022-08-03T10:44:15.415Z,45.41
2022-08-03T10:45:15.391Z,45.58
2022-08-03T10:46:15.369Z,45.65
2022-08-03T10:47:15.456Z,44.74
2022-08-03T10:48:15.381Z,44.40
2022-08-03T10:49:15.387Z,43.14
2022-08-03T10:50:15.372Z,42.00
2022-08-03T10:51:21.863Z,40.97
2022-08-03T10:52:33.688Z,41.13
2022-08-03T10:53:15.346Z,41.48
2022-08-03T10:54:15.339Z,41.07
2022-08-03T10:55:15.308Z,40.97
2022-08-03T10:56:15.315Z,41.58
2022-08-03T10:57:15.531Z,41.82
2022-08-03T10:58:15.282Z,42.27
2022-08-03T10:59:27.989Z,42.75
2022-08-03T11:00:15.296Z,43.44
2022-08-03T11:01:15.390Z,43.33
2022-08-03T11:02:15.263Z,42.00
2022-08-03T11:03:15.261Z,41.57
2022-08-03T11:04:16.959Z,41.73
2022-08-03T11:05:15.249Z,42.21
2022-08-03T11:06:15.239Z,42.34
2022-08-03T11:07:15.401Z,42.17
2022-08-03T11:08:15.218Z,42.30
2022-08-03T11:09:15.238Z,42.08
2022-08-03T11:10:15.221Z,42.38
2022-08-03T11:11:15.228Z,42.54
2022-08-03T11:12:15.183Z,42.99
2022-08-03T11:13:16.907Z,43.56
2022-08-03T11:14:15.186Z,43.90
2022-08-03T11:15:15.192Z,43.79
2022-08-03T11:16:19.802Z,43.93
2022-08-03T11:17:15.197Z,43.91
2022-08-03T11:18:15.152Z,44.12
2022-08-03T11:19:15.197Z,44.13
2022-08-03T11:20:15.140Z,44.35
2022-08-03T11:21:15.153Z,44.21
2022-08-03T11:22:15.140Z,44.21
2022-08-03T11:23:15.123Z,43.56
2022-08-03T11:24:15.119Z,42.68
2022-08-03T11:25:54.099Z,42.26
2022-08-03T11:26:15.101Z,41.73
2022-08-03T11:27:15.121Z,41.77
2022-08-03T11:28:15.087Z,42.42
2022-08-03T11:29:15.068Z,43.01
2022-08-03T11:30:15.071Z,43.60
2022-08-03T11:31:32.674Z,44.40
2022-08-03T11:32:19.429Z,45.23
2022-08-03T11:33:15.054Z,44.89
2022-08-03T11:34:15.027Z,44.47
2022-08-03T11:35:15.048Z,44.51
2022-08-03T11:36:15.039Z,44.49
2022-08-03T11:37:15.036Z,44.28
2022-08-03T11:38:15.016Z,44.32
2022-08-03T11:39:16.734Z,44.78
2022-08-03T11:40:15.009Z,45.08
2022-08-03T11:41:14.981Z,45.34
2022-08-03T11:42:14.978Z,45.37
2022-08-03T11:43:14.956Z,45.60
2022-08-03T11:44:15.017Z,46.11
2022-08-03T11:45:15.010Z,46.49
2022-08-03T11:46:14.963Z,46.61
2022-08-03T11:47:14.949Z,45.77
2022-08-03T11:48:14.942Z,45.15
2022-08-03T11:49:14.976Z,44.94
2022-08-03T11:50:14.922Z,45.01
2022-08-03T11:51:21.413Z,45.03
2022-08-03T11:52:14.910Z,45.22
2022-08-03T11:53:14.953Z,45.51
2022-08-03T11:54:14.898Z,45.42
2022-08-03T11:55:14.871Z,45.51
2022-08-03T11:56:14.925Z,45.63
2022-08-03T11:57:15.314Z,45.97
2022-08-03T11:59:01.744Z,46.26
2022-08-03T11:59:24.222Z,46.53
2022-08-03T12:00:14.871Z,46.49
2022-08-03T12:01:14.834Z,46.56
2022-08-03T12:02:14.840Z,46.96
2022-08-03T12:03:14.980Z,47.39
2022-08-03T12:04:14.861Z,47.69
2022-08-03T12:05:14.804Z,47.94
2022-08-03T12:06:14.828Z,48.01
2022-08-03T12:07:24.444Z,48.31
2022-08-03T12:08:14.842Z,48.69
2022-08-03T12:09:15.765Z,48.69
2022-08-03T12:10:16.822Z,48.77
2022-08-03T12:11:14.794Z,49.06
2022-08-03T12:12:14.780Z,49.18
2022-08-03T12:14:37.372Z,48.85
2022-08-03T12:14:56.071Z,48.48
2022-08-03T12:15:14.776Z,48.42
2022-08-03T12:16:14.759Z,48.25
2022-08-03T12:17:14.739Z,48.01
2022-08-03T12:18:14.772Z,47.83
2022-08-03T12:19:14.723Z,47.50
2022-08-03T12:20:14.748Z,47.36
2022-08-03T12:21:14.736Z,47.67
2022-08-03T12:22:14.723Z,47.75
2022-08-03T12:23:14.733Z,47.63
2022-08-03T12:24:14.708Z,46.48
2022-08-03T12:25:14.682Z,45.65
2022-08-03T12:26:14.722Z,45.60
2022-08-03T12:27:14.681Z,45.99
2022-08-03T12:28:36.912Z,46.36
2022-08-03T12:29:14.679Z,46.91
2022-08-03T12:30:14.678Z,47.15
2022-08-03T12:31:15.168Z,47.71
2022-08-03T12:32:14.641Z,48.07
2022-08-03T12:33:14.646Z,48.48
2022-08-03T12:34:14.638Z,48.84
2022-08-03T12:35:14.642Z,48.58
2022-08-03T12:36:14.639Z,48.54
2022-08-03T12:37:19.269Z,48.29
2022-08-03T12:38:14.603Z,48.20
2022-08-03T12:39:14.630Z,48.36
2022-08-03T12:40:19.336Z,48.05
2022-08-03T12:41:14.625Z,46.79
2022-08-03T12:42:14.612Z,45.75
2022-08-03T12:43:14.580Z,45.08
2022-08-03T12:44:14.571Z,45.27
2022-08-03T12:45:14.602Z,44.72
2022-08-03T12:46:14.561Z,44.08
2022-08-03T12:47:14.557Z,43.71
2022-08-03T12:48:14.539Z,43.50
2022-08-03T12:49:14.643Z,43.55
2022-08-03T12:50:15.313Z,43.56
2022-08-03T12:51:14.530Z,44.20
2022-08-03T12:52:14.502Z,43.89
2022-08-03T12:53:14.495Z,44.10
2022-08-03T12:54:14.508Z,43.77
2022-08-03T12:55:14.557Z,43.94
2022-08-03T12:56:14.470Z,44.62
2022-08-03T12:57:15.842Z,45.20
2022-08-03T12:58:18.849Z,45.94
2022-08-03T12:59:14.456Z,46.75
2022-08-03T13:00:21.652Z,46.96
2022-08-03T13:01:20.965Z,46.91
2022-08-03T13:02:14.470Z,46.70
2022-08-03T13:03:39.134Z,46.49
2022-08-03T13:04:18.271Z,46.50
2022-08-03T13:05:14.399Z,46.26
2022-08-03T13:06:14.444Z,45.65
2022-08-03T13:07:14.679Z,45.53
2022-08-03T13:08:14.393Z,45.75
2022-08-03T13:09:15.026Z,46.17
2022-08-03T13:10:14.390Z,46.38
2022-08-03T13:11:14.361Z,46.75
2022-08-03T13:12:14.356Z,47.31
2022-08-03T13:13:14.371Z,47.93
2022-08-03T13:14:19.776Z,48.42
2022-08-03T13:15:14.362Z,48.32
2022-08-03T13:16:19.030Z,48.45
2022-08-03T13:17:14.323Z,47.91
2022-08-03T13:18:14.336Z,47.50
2022-08-03T13:19:15.644Z,47.71
2022-08-03T13:20:14.311Z,48.19
2022-08-03T13:21:14.332Z,47.93
2022-08-03T13:22:14.280Z,47.82
2022-08-03T13:23:21.910Z,47.59
2022-08-03T13:24:14.260Z,47.50
2022-08-03T13:25:14.289Z,47.37
2022-08-03T13:26:14.288Z,47.25
2022-08-03T13:28:01.838Z,47.31
2022-08-03T13:28:14.722Z,47.47
2022-08-03T13:29:14.251Z,47.06
2022-08-03T13:30:14.250Z,46.12
2022-08-03T13:31:14.230Z,45.88
2022-08-03T13:32:14.215Z,46.01
2022-08-03T13:33:14.239Z,45.63
2022-08-03T13:34:14.190Z,44.32
2022-08-03T13:35:16.657Z,43.41
2022-08-03T13:36:14.191Z,43.93
2022-08-03T13:37:14.211Z,44.54
2022-08-03T13:38:15.411Z,44.82
2022-08-03T13:39:14.157Z,45.58
2022-08-03T13:40:14.764Z,46.11
2022-08-03T13:41:15.496Z,46.36
2022-08-03T13:42:14.192Z,46.79
2022-08-03T13:43:14.141Z,47.41
2022-08-03T13:44:29.355Z,46.53
2022-08-03T13:45:14.163Z,46.48
2022-08-03T13:46:14.131Z,46.31
2022-08-03T13:47:14.149Z,46.82
2022-08-03T13:48:14.121Z,46.77
2022-08-03T13:49:14.126Z,47.02
2022-08-03T13:50:14.109Z,47.47
2022-08-03T13:51:22.551Z,48.01
2022-08-03T13:52:14.073Z,48.73
2022-08-03T13:53:14.092Z,48.79
2022-08-03T13:54:14.086Z,48.50
2022-08-03T13:55:14.070Z,48.58
2022-08-03T13:56:14.050Z,48.86
2022-08-03T13:58:04.187Z,49.23
2022-08-03T13:58:14.279Z,49.63
2022-08-03T13:59:14.040Z,50.36
2022-08-03T14:00:26.596Z,51.08
2022-08-03T14:01:53.535Z,51.08
2022-08-03T14:02:14.052Z,51.18
2022-08-03T14:03:14.829Z,51.42
2022-08-03T14:04:21.754Z,51.53
2022-08-03T14:05:13.992Z,51.64
2022-08-03T14:06:14.006Z,51.43
2022-08-03T14:07:14.008Z,50.79
2022-08-03T14:08:14.001Z,49.88
2022-08-03T14:09:13.972Z,49.78
2022-08-03T14:10:13.969Z,49.87
2022-08-03T14:11:13.982Z,48.85
2022-08-03T14:12:14.936Z,47.79
2022-08-03T14:13:14.474Z,48.01
2022-08-03T14:14:13.935Z,47.63
2022-08-03T14:15:13.934Z,47.29
2022-08-03T14:16:16.956Z,47.53
2022-08-03T14:17:13.942Z,48.04
2022-08-03T14:18:15.609Z,48.77
2022-08-03T14:19:13.924Z,48.94
2022-08-03T14:20:38.984Z,48.97
2022-08-03T14:21:13.893Z,48.21
2022-08-03T14:22:13.901Z,48.35
2022-08-03T14:23:14.115Z,48.58
2022-08-03T14:24:13.892Z,48.65
2022-08-03T14:25:13.877Z,48.92
2022-08-03T14:26:13.876Z,49.12
2022-08-03T14:27:13.869Z,49.08
2022-08-03T14:28:13.945Z,49.23
2022-08-03T14:29:13.864Z,49.36
2022-08-03T14:30:13.860Z,49.34
2022-08-03T14:32:10.943Z,49.61
2022-08-03T14:32:17.595Z,50.16
2022-08-03T14:33:13.869Z,50.47
2022-08-03T14:34:13.827Z,50.02
2022-08-03T14:35:13.845Z,49.50
2022-08-03T14:36:13.811Z,49.23
2022-08-03T14:37:13.813Z,48.50
2022-08-03T14:38:13.821Z,48.50
2022-08-03T14:39:13.830Z,48.55
2022-08-03T14:40:13.821Z,47.94
2022-08-03T14:41:20.144Z,48.12
2022-08-03T14:42:13.780Z,47.94
2022-08-03T14:43:13.765Z,48.10
2022-08-03T14:44:13.761Z,48.20
2022-08-03T14:45:20.034Z,47.72
2022-08-03T14:46:13.775Z,47.64
2022-08-03T14:47:13.774Z,47.46
2022-08-03T14:50:34.481Z,47.53
2022-08-03T14:50:50.772Z,48.00
2022-08-03T14:50:56.112Z,48.58
2022-08-03T14:51:55.291Z,48.16
2022-08-03T14:52:55.299Z,48.35
2022-08-03T14:53:55.275Z,48.60
2022-08-03T14:54:55.267Z,47.47
2022-08-03T14:55:55.280Z,47.13
2022-08-03T14:56:55.251Z,47.29
2022-08-03T14:57:55.241Z,47.88
2022-08-03T14:58:55.248Z,48.39
2022-08-03T14:59:56.588Z,48.88
2022-08-03T15:00:55.253Z,49.50
2022-08-03T15:02:03.510Z,49.59
2022-08-03T15:02:55.308Z,49.77
2022-08-03T15:03:55.201Z,50.12
2022-08-03T15:04:55.185Z,50.25
2022-08-03T15:05:55.212Z,50.07
2022-08-03T15:06:55.183Z,50.22
2022-08-03T15:07:55.190Z,50.22
2022-08-03T15:09:21.758Z,50.31
2022-08-03T15:09:55.184Z,50.57
2022-08-03T15:10:55.165Z,50.81
2022-08-03T15:11:55.152Z,50.47
2022-08-03T15:12:55.181Z,50.57
2022-08-03T15:13:55.155Z,50.53
2022-08-03T15:14:55.132Z,50.19
2022-08-03T15:15:55.128Z,50.16
2022-08-03T15:16:55.148Z,50.31
2022-08-03T15:17:59.796Z,50.36
2022-08-03T15:18:55.995Z,50.70
2022-08-03T15:20:00.465Z,50.69
2022-08-03T15:20:55.193Z,50.69
2022-08-03T15:21:55.116Z,50.74
2022-08-03T15:22:55.087Z,50.72
2022-08-03T15:23:55.116Z,50.66
2022-08-03T15:24:55.067Z,50.81
2022-08-03T15:26:03.115Z,50.93
2022-08-03T15:26:55.087Z,49.69
2022-08-03T15:28:03.410Z,49.51
2022-08-03T15:28:55.068Z,49.77
2022-08-03T15:30:09.550Z,50.03
